Time;durP1;ratioP1;P1;durP2;ratioP2;P2;SDS_P1;SDS_P2;PMS_P1;PMS_P2;Temp;Humidity;BMP_temperature;BMP_pressure;BME280_temperature;BME280_humidity;BME280_pressure;Samples;Min_cycle;Max_cycle;Signal;HPM_P1;HPM_P2
2023/05/11 00:00:27;;;;;;;6.85;4.45;;;;;;;;;;5082078;28;20516;-85
2023/05/11 00:02:56;;;;;;;6.70;3.50;;;;;;;;;;5087708;28;20077;-86
2023/05/11 00:05:21;;;;;;;4.72;3.05;;;;;;;;;;5086406;28;20039;-84
2023/05/11 00:07:49;;;;;;;4.43;3.78;;;;;;;;;;5082406;28;20016;-85
2023/05/11 00:10:21;;;;;;;3.90;2.53;;;;;;;;;;5080038;28;20073;-85
2023/05/11 00:12:58;;;;;;;4.65;3.17;;;;;;;;;;5080929;28;20380;-85
2023/05/11 00:15:23;;;;;;;3.65;2.88;;;;;;;;;;5117702;27;20020;-83
2023/05/11 00:17:49;;;;;;;4.65;2.65;;;;;;;;;;5075520;28;20035;-85
2023/05/11 00:20:23;;;;;;;5.35;3.25;;;;;;;;;;5088796;28;20021;-86
2023/05/11 00:22:52;;;;;;;3.83;2.88;;;;;;;;;;5079843;28;20040;-82
2023/05/11 00:25:24;;;;;;;9.80;3.80;;;;;;;;;;5090028;28;20464;-87
2023/05/11 00:27:50;;;;;;;6.97;3.97;;;;;;;;;;5077816;28;20151;-86
2023/05/11 00:30:15;;;;;;;3.90;2.80;;;;;;;;;;5089829;28;20101;-89
2023/05/11 00:32:42;;;;;;;5.65;3.42;;;;;;;;;;5073043;28;20064;-84
2023/05/11 00:35:09;;;;;;;5.72;3.38;;;;;;;;;;5081336;28;20024;-87
2023/05/11 00:37:35;;;;;;;5.90;3.58;;;;;;;;;;5083909;28;20044;-85
2023/05/11 00:40:04;;;;;;;5.13;3.50;;;;;;;;;;5085994;28;20035;-83
2023/05/11 00:42:30;;;;;;;4.70;3.53;;;;;;;;;;5081878;28;20035;-87
2023/05/11 00:45:28;;;;;;;5.68;3.95;;;;;;;;;;5083915;28;20028;-85
2023/05/11 00:48:10;;;;;;;;;;;;;;;;;;;;;
2023/05/11 00:50:38;;;;;;;5.25;3.47;;;;;;;;;;5082584;28;20024;-85
2023/05/11 00:53:04;;;;;;;5.40;3.75;;;;;;;;;;5076213;28;20436;-88
2023/05/11 00:55:30;;;;;;;5.15;3.20;;;;;;;;;;5087164;28;20123;-84
2023/05/11 00:57:59;;;;;;;9.70;4.68;;;;;;;;;;5080833;28;20095;-85
2023/05/11 01:00:27;;;;;;;5.80;4.07;;;;;;;;;;5082272;28;20415;-86
2023/05/11 01:02:53;;;;;;;5.68;3.33;;;;;;;;;;5078685;28;20115;-88
2023/05/11 01:05:34;;;;;;;;;;;;;;;;;;;;;
2023/05/11 01:08:16;;;;;;;3.90;2.97;;;;;;;;;;5081995;28;20094;-85
2023/05/11 01:10:53;;;;;;;5.30;3.10;;;;;;;;;;5076041;28;20016;-84
2023/05/11 01:13:32;;;;;;;5.70;3.83;;;;;;;;;;5080792;28;20495;-85
2023/05/11 01:16:04;;;;;;;4.10;2.83;;;;;;;;;;5081085;28;20108;-85
2023/05/11 01:18:50;;;;;;;4.85;3.28;;;;;;;;;;5087871;28;20138;-84
2023/05/11 01:21:16;;;;;;;3.63;2.22;;;;;;;;;;5081062;28;20135;-83
2023/05/11 01:24:16;;;;;;;4.93;3.17;;;;;;;;;;5076004;28;20032;-84
2023/05/11 01:27:31;;;;;;;5.05;3.33;;;;;;;;;;5080963;28;20017;-89
2023/05/11 01:30:26;;;;;;;5.38;2.95;;;;;;;;;;5083858;28;20068;-85
2023/05/11 01:33:02;;;;;;;3.22;2.42;;;;;;;;;;5064269;28;20032;-86
2023/05/11 01:35:31;;;;;;;3.63;2.08;;;;;;;;;;5082490;28;20059;-84
2023/05/11 01:38:00;;;;;;;5.97;3.45;;;;;;;;;;5078920;28;20511;-85
2023/05/11 01:40:31;;;;;;;4.97;2.75;;;;;;;;;;5081452;28;20060;-85
2023/05/11 01:43:19;;;;;;;4.43;2.83;;;;;;;;;;5073344;28;20055;-85
2023/05/11 01:45:49;;;;;;;3.72;2.53;;;;;;;;;;5077460;28;20384;-83
2023/05/11 01:48:22;;;;;;;4.32;2.47;;;;;;;;;;5082542;28;20483;-85
2023/05/11 01:50:59;;;;;;;4.32;2.53;;;;;;;;;;5080344;28;20357;-84
2023/05/11 01:53:26;;;;;;;4.20;2.38;;;;;;;;;;5084903;28;20056;-85
2023/05/11 01:55:55;;;;;;;4.05;2.63;;;;;;;;;;5074279;28;20075;-82
2023/05/11 01:58:24;;;;;;;3.67;2.30;;;;;;;;;;5072990;28;20032;-83
2023/05/11 02:00:52;;;;;;;3.33;2.20;;;;;;;;;;5074072;28;20561;-84
2023/05/11 02:03:22;;;;;;;4.15;2.72;;;;;;;;;;5077250;28;20036;-84
2023/05/11 02:05:48;;;;;;;;;;;;;;;;;;5082445;28;20764;-83
2023/05/11 02:08:15;;;;;;;3.83;2.30;;;;;;;;;;5072233;28;19927;-85
2023/05/11 02:10:45;;;;;;;3.55;2.15;;;;;;;;;;5084645;28;20101;-83
2023/05/11 02:13:11;;;;;;;3.92;2.45;;;;;;;;;;5081604;28;20388;-83
2023/05/11 02:15:40;;;;;;;3.72;2.35;;;;;;;;;;5076687;28;20082;-84
2023/05/11 02:18:11;;;;;;;3.03;2.15;;;;;;;;;;5076803;28;20028;-85
2023/05/11 02:20:43;;;;;;;3.15;2.10;;;;;;;;;;5080552;28;20020;-83
2023/05/11 02:23:12;;;;;;;5.60;2.78;;;;;;;;;;5076571;28;20036;-84
2023/05/11 02:26:01;;;;;;;3.25;2.15;;;;;;;;;;5087991;28;20487;-83
2023/05/11 02:28:27;;;;;;;5.27;2.87;;;;;;;;;;5074724;28;20115;-83
2023/05/11 02:31:32;;;;;;;6.07;3.03;;;;;;;;;;5080975;28;21407;-84
2023/05/11 02:34:43;;;;;;;3.47;2.00;;;;;;;;;;5077068;28;20050;-87
2023/05/11 02:37:20;;;;;;;5.10;2.38;;;;;;;;;;5081939;28;20044;-86
2023/05/11 02:39:52;;;;;;;2.95;2.28;;;;;;;;;;5079515;28;20082;-84
2023/05/11 02:42:26;;;;;;;5.05;2.88;;;;;;;;;;5079627;28;20480;-86
2023/05/11 02:45:06;;;;;;;3.78;2.30;;;;;;;;;;5080882;28;20099;-85
2023/05/11 02:48:03;;;;;;;3.85;2.30;;;;;;;;;;5082723;28;20059;-84
2023/05/11 02:50:30;;;;;;;2.38;1.95;;;;;;;;;;5051448;28;20033;-87
2023/05/11 02:53:06;;;;;;;5.38;2.58;;;;;;;;;;5079037;28;20081;-85
2023/05/11 02:55:32;;;;;;;2.88;1.92;;;;;;;;;;5082966;28;20025;-87
2023/05/11 02:58:03;;;;;;;3.88;2.65;;;;;;;;;;5082475;28;20037;-87
2023/05/11 03:00:31;;;;;;;2.88;2.00;;;;;;;;;;5083952;28;20042;-86
2023/05/11 03:02:58;;;;;;;2.60;1.95;;;;;;;;;;5085948;28;20024;-85
2023/05/11 03:05:26;;;;;;;3.47;2.17;;;;;;;;;;5083167;28;20029;-84
2023/05/11 03:07:58;;;;;;;3.88;2.50;;;;;;;;;;5084780;28;20445;-86
2023/05/11 03:10:26;;;;;;;3.03;2.35;;;;;;;;;;5081270;28;20028;-86
2023/05/11 03:12:55;;;;;;;8.60;2.70;;;;;;;;;;5089603;28;20028;-85
2023/05/11 03:15:21;;;;;;;4.38;2.67;;;;;;;;;;5086024;28;20028;-86
2023/05/11 03:17:49;;;;;;;6.22;2.67;;;;;;;;;;5089052;28;20020;-85
2023/05/11 03:20:16;;;;;;;6.07;3.05;;;;;;;;;;5084848;28;20032;-85
2023/05/11 03:22:44;;;;;;;3.53;2.72;;;;;;;;;;5084212;28;20109;-86
2023/05/11 03:25:19;;;;;;;3.60;2.72;;;;;;;;;;5084527;28;20025;-84
2023/05/11 03:27:45;;;;;;;3.90;2.20;;;;;;;;;;5082085;28;20468;-86
2023/05/11 03:30:13;;;;;;;3.80;2.42;;;;;;;;;;5088235;28;20030;-82
2023/05/11 03:32:41;;;;;;;2.65;2.08;;;;;;;;;;5080164;28;20092;-83
2023/05/11 03:35:09;;;;;;;5.38;3.30;;;;;;;;;;5085860;28;20494;-84
2023/05/11 03:37:37;;;;;;;6.10;3.15;;;;;;;;;;5077426;28;20040;-86
2023/05/11 03:40:03;;;;;;;6.35;3.50;;;;;;;;;;5080502;28;20062;-84
2023/05/11 03:42:30;;;;;;;6.10;3.72;;;;;;;;;;5082470;28;20111;-85
2023/05/11 03:45:00;;;;;;;5.93;3.40;;;;;;;;;;5084105;28;20071;-85
2023/05/11 03:47:27;;;;;;;3.40;2.85;;;;;;;;;;5084009;28;20383;-84
2023/05/11 03:49:57;;;;;;;3.67;2.88;;;;;;;;;;5084701;28;20753;-85
2023/05/11 03:52:29;;;;;;;6.75;3.22;;;;;;;;;;5081529;28;20467;-86
2023/05/11 03:55:05;;;;;;;3.60;2.80;;;;;;;;;;5082523;28;20039;-88
2023/05/11 03:57:34;;;;;;;6.70;3.65;;;;;;;;;;5074354;28;20034;-85
2023/05/11 04:00:09;;;;;;;5.40;3.33;;;;;;;;;;5085597;28;20024;-84
2023/05/11 04:02:38;;;;;;;5.07;3.40;;;;;;;;;;5079491;28;20086;-84
2023/05/11 04:05:12;;;;;;;7.10;3.97;;;;;;;;;;5082059;28;20040;-85
2023/05/11 04:07:38;;;;;;;6.55;3.92;;;;;;;;;;5081183;28;20020;-84
2023/05/11 04:10:11;;;;;;;6.03;3.15;;;;;;;;;;5084488;28;20020;-85
2023/05/11 04:12:37;;;;;;;14.50;4.85;;;;;;;;;;5080642;28;20112;-83
2023/05/11 04:15:05;;;;;;;6.45;3.83;;;;;;;;;;5079037;28;20115;-87
2023/05/11 04:17:39;;;;;;;5.03;3.35;;;;;;;;;;5085768;28;20028;-84
2023/05/11 04:20:05;;;;;;;5.35;3.83;;;;;;;;;;5080932;28;20030;-82
2023/05/11 04:22:30;;;;;;;6.55;4.18;;;;;;;;;;5083006;28;20024;-83
2023/05/11 04:24:56;;;;;;;8.88;5.35;;;;;;;;;;5080278;28;20027;-85
2023/05/11 04:27:24;;;;;;;5.13;3.65;;;;;;;;;;5085031;28;20126;-84
2023/05/11 04:29:50;;;;;;;7.22;3.75;;;;;;;;;;5078177;28;20027;-85
2023/05/11 04:32:15;;;;;;;6.30;4.07;;;;;;;;;;5081275;28;20028;-85
2023/05/11 04:34:41;;;;;;;6.35;4.47;;;;;;;;;;5115157;27;20024;-85
2023/05/11 04:37:06;;;;;;;6.55;4.05;;;;;;;;;;5081464;28;20056;-83
2023/05/11 04:39:33;;;;;;;6.07;3.85;;;;;;;;;;5079671;28;20043;-86
2023/05/11 04:41:59;;;;;;;5.15;3.35;;;;;;;;;;5079083;28;20052;-85
2023/05/11 04:44:24;;;;;;;9.00;3.92;;;;;;;;;;5080678;28;20020;-84
2023/05/11 04:46:54;;;;;;;6.40;3.90;;;;;;;;;;5085685;28;20106;-86
2023/05/11 04:49:19;;;;;;;7.75;4.75;;;;;;;;;;5080978;28;20114;-87
2023/05/11 04:51:45;;;;;;;8.52;4.50;;;;;;;;;;5080783;28;20055;-86
2023/05/11 04:54:10;;;;;;;6.75;3.55;;;;;;;;;;5081965;28;20055;-84
2023/05/11 04:56:39;;;;;;;5.47;3.75;;;;;;;;;;5080160;28;20114;-84
2023/05/11 04:59:05;;;;;;;9.18;4.18;;;;;;;;;;5082556;28;20088;-87
2023/05/11 05:01:31;;;;;;;8.73;4.85;;;;;;;;;;5079583;28;20507;-84
2023/05/11 05:03:56;;;;;;;6.60;4.15;;;;;;;;;;5082907;28;20032;-89
2023/05/11 05:06:21;;;;;;;8.05;5.03;;;;;;;;;;5078259;28;20023;-85
2023/05/11 05:08:47;;;;;;;8.82;4.75;;;;;;;;;;5080023;28;20020;-85
2023/05/11 05:11:12;;;;;;;10.10;5.65;;;;;;;;;;5081643;28;20566;-86
2023/05/11 05:13:38;;;;;;;12.05;5.32;;;;;;;;;;5081562;28;20032;-83
2023/05/11 05:16:03;;;;;;;6.93;4.22;;;;;;;;;;5084161;28;20464;-85
2023/05/11 05:18:29;;;;;;;6.32;4.25;;;;;;;;;;5082726;28;20032;-85
2023/05/11 05:20:54;;;;;;;7.82;4.35;;;;;;;;;;5082505;28;20067;-85
2023/05/11 05:23:19;;;;;;;8.50;4.63;;;;;;;;;;5084511;28;20027;-83
2023/05/11 05:25:45;;;;;;;9.07;5.20;;;;;;;;;;5081884;28;20027;-84
2023/05/11 05:28:10;;;;;;;7.32;4.47;;;;;;;;;;5081645;28;20173;-85
2023/05/11 05:30:36;;;;;;;13.63;4.82;;;;;;;;;;5079555;28;20032;-83
2023/05/11 05:33:01;;;;;;;8.43;4.78;;;;;;;;;;5077692;28;20024;-83
2023/05/11 05:35:27;;;;;;;5.90;3.72;;;;;;;;;;5084606;28;20036;-87
2023/05/11 05:37:52;;;;;;;11.40;4.90;;;;;;;;;;5083237;28;20491;-84
2023/05/11 05:40:18;;;;;;;11.43;4.57;;;;;;;;;;5083557;28;20056;-85
2023/05/11 05:42:43;;;;;;;7.13;4.20;;;;;;;;;;5079058;28;20024;-85
2023/05/11 05:45:09;;;;;;;9.15;4.93;;;;;;;;;;5075320;28;20063;-86
2023/05/11 05:47:35;;;;;;;7.00;4.05;;;;;;;;;;5082840;28;20113;-83
2023/05/11 05:50:00;;;;;;;13.13;4.00;;;;;;;;;;5081781;28;20032;-83
2023/05/11 05:52:28;;;;;;;5.50;3.42;;;;;;;;;;5080458;28;20024;-82
2023/05/11 05:54:54;;;;;;;7.10;4.10;;;;;;;;;;5080395;28;20103;-81
2023/05/11 05:57:19;;;;;;;7.00;3.83;;;;;;;;;;5078484;28;20128;-82
2023/05/11 05:59:45;;;;;;;7.30;4.72;;;;;;;;;;5076151;28;20025;-86
2023/05/11 06:02:12;;;;;;;10.90;5.95;;;;;;;;;;5104864;27;20455;-83
2023/05/11 06:04:37;;;;;;;8.70;4.55;;;;;;;;;;5078613;28;20077;-83
2023/05/11 06:07:03;;;;;;;8.35;4.15;;;;;;;;;;5078865;28;20427;-86
2023/05/11 06:09:28;;;;;;;7.75;4.57;;;;;;;;;;5078733;28;21588;-83
2023/05/11 06:11:54;;;;;;;9.38;5.22;;;;;;;;;;5078653;28;20024;-83
2023/05/11 06:14:21;;;;;;;13.45;5.53;;;;;;;;;;5077238;28;20092;-81
2023/05/11 06:16:47;;;;;;;10.60;5.22;;;;;;;;;;5077202;28;20500;-83
2023/05/11 06:19:12;;;;;;;6.28;3.72;;;;;;;;;;5075742;28;20028;-85
2023/05/11 06:21:40;;;;;;;6.82;4.10;;;;;;;;;;5075692;28;20036;-82
2023/05/11 06:24:06;;;;;;;7.18;4.35;;;;;;;;;;5074845;28;20479;-85
2023/05/11 06:26:31;;;;;;;8.32;4.72;;;;;;;;;;5080763;28;20031;-83
2023/05/11 06:28:57;;;;;;;7.18;4.25;;;;;;;;;;5106486;28;20028;-81
2023/05/11 06:31:23;;;;;;;10.05;4.82;;;;;;;;;;5096013;28;20126;-84
2023/05/11 06:33:49;;;;;;;8.25;4.80;;;;;;;;;;5080053;28;20024;-81
2023/05/11 06:36:14;;;;;;;6.65;3.38;;;;;;;;;;5085372;28;20036;-85
2023/05/11 06:38:39;;;;;;;6.22;3.42;;;;;;;;;;5077063;28;20613;-84
2023/05/11 06:41:06;;;;;;;5.70;4.00;;;;;;;;;;5078764;28;20020;-86
2023/05/11 06:43:32;;;;;;;7.95;4.60;;;;;;;;;;5079888;28;20051;-86
2023/05/11 06:45:57;;;;;;;8.73;3.97;;;;;;;;;;5074817;28;20025;-85
2023/05/11 06:48:24;;;;;;;8.05;4.07;;;;;;;;;;5082166;28;20020;-87
2023/05/11 06:50:50;;;;;;;6.57;3.42;;;;;;;;;;5075263;28;20016;-86
2023/05/11 06:53:16;;;;;;;10.07;5.32;;;;;;;;;;5078124;28;20089;-82
2023/05/11 06:55:42;;;;;;;12.45;5.10;;;;;;;;;;5078755;28;20032;-83
2023/05/11 06:58:07;;;;;;;10.77;6.00;;;;;;;;;;5081042;28;20021;-82
2023/05/11 07:00:33;;;;;;;9.02;4.97;;;;;;;;;;5076243;28;20059;-85
2023/05/11 07:02:58;;;;;;;9.93;4.75;;;;;;;;;;5077846;28;20103;-82
2023/05/11 07:05:24;;;;;;;10.80;4.50;;;;;;;;;;5077330;28;20024;-85
2023/05/11 07:07:50;;;;;;;7.55;4.57;;;;;;;;;;5074690;28;20054;-84
2023/05/11 07:10:15;;;;;;;8.85;5.32;;;;;;;;;;5080630;28;20052;-83
2023/05/11 07:12:40;;;;;;;7.22;4.72;;;;;;;;;;5074315;28;20028;-87
2023/05/11 07:15:09;;;;;;;7.35;4.40;;;;;;;;;;5076639;28;20039;-84
2023/05/11 07:17:34;;;;;;;12.07;5.55;;;;;;;;;;5080262;28;20491;-83
2023/05/11 07:20:00;;;;;;;6.32;3.72;;;;;;;;;;5078961;28;20039;-84
2023/05/11 07:22:25;;;;;;;4.75;2.85;;;;;;;;;;5073441;28;20425;-86
2023/05/11 07:24:51;;;;;;;8.55;4.75;;;;;;;;;;5078480;28;20043;-84
2023/05/11 07:27:16;;;;;;;9.80;4.75;;;;;;;;;;5078234;28;20069;-84
2023/05/11 07:29:42;;;;;;;6.60;4.28;;;;;;;;;;5065639;28;20029;-82
2023/05/11 07:32:07;;;;;;;6.65;4.60;;;;;;;;;;5065762;28;20020;-84
2023/05/11 07:34:33;;;;;;;8.50;5.70;;;;;;;;;;5074770;28;20040;-84
2023/05/11 07:36:58;;;;;;;6.03;3.97;;;;;;;;;;5081072;28;20040;-85
2023/05/11 07:39:23;;;;;;;7.60;5.35;;;;;;;;;;5079566;28;20118;-86
2023/05/11 07:41:49;;;;;;;7.63;4.65;;;;;;;;;;5111565;27;20024;-84
2023/05/11 07:44:15;;;;;;;8.70;4.82;;;;;;;;;;5080047;28;20100;-84
2023/05/11 07:46:40;;;;;;;12.30;5.97;;;;;;;;;;5082056;28;21197;-84
2023/05/11 07:49:07;;;;;;;10.23;5.10;;;;;;;;;;5079603;28;20380;-87
2023/05/11 07:51:33;;;;;;;7.32;4.38;;;;;;;;;;5076145;28;20028;-83
2023/05/11 07:53:59;;;;;;;9.18;5.60;;;;;;;;;;5081284;28;20455;-83
2023/05/11 07:56:25;;;;;;;7.45;4.93;;;;;;;;;;5069792;28;20033;-83
2023/05/11 07:58:50;;;;;;;8.32;4.85;;;;;;;;;;5077681;28;20029;-86
2023/05/11 08:01:16;;;;;;;9.85;6.57;;;;;;;;;;5079310;28;20031;-84
2023/05/11 08:03:41;;;;;;;7.95;4.85;;;;;;;;;;5074336;28;20051;-82
2023/05/11 08:06:07;;;;;;;6.57;4.07;;;;;;;;;;5074703;28;20036;-82
2023/05/11 08:08:32;;;;;;;7.95;4.85;;;;;;;;;;5079169;28;20020;-83
2023/05/11 08:10:59;;;;;;;12.38;4.85;;;;;;;;;;5081473;28;20020;-83
2023/05/11 08:13:25;;;;;;;10.93;5.68;;;;;;;;;;5115366;27;20032;-82
2023/05/11 08:15:50;;;;;;;8.38;5.00;;;;;;;;;;5067018;28;20038;-84
2023/05/11 08:18:16;;;;;;;10.57;5.03;;;;;;;;;;5075948;28;20518;-81
2023/05/11 08:20:42;;;;;;;7.10;4.07;;;;;;;;;;5080144;28;20065;-83
2023/05/11 08:23:09;;;;;;;12.35;5.60;;;;;;;;;;5081417;28;20032;-85
2023/05/11 08:25:35;;;;;;;8.27;4.68;;;;;;;;;;5078815;28;20120;-83
2023/05/11 08:28:01;;;;;;;8.30;4.53;;;;;;;;;;5078188;28;20118;-80
2023/05/11 08:30:27;;;;;;;10.82;5.85;;;;;;;;;;5078765;28;20185;-82
2023/05/11 08:32:52;;;;;;;9.00;4.90;;;;;;;;;;5074750;28;20083;-81
2023/05/11 08:35:18;;;;;;;8.75;4.47;;;;;;;;;;5074106;28;20036;-83
2023/05/11 08:37:43;;;;;;;8.82;5.90;;;;;;;;;;5078408;28;20076;-83
2023/05/11 08:40:10;;;;;;;9.32;5.55;;;;;;;;;;5081423;28;20025;-83
2023/05/11 08:42:39;;;;;;;8.00;5.45;;;;;;;;;;5071416;28;20063;-84
2023/05/11 08:45:05;;;;;;;7.50;5.03;;;;;;;;;;5081204;28;20024;-82
2023/05/11 08:47:32;;;;;;;8.88;5.13;;;;;;;;;;5075205;28;20530;-83
2023/05/11 08:49:57;;;;;;;7.40;4.45;;;;;;;;;;5071964;28;20079;-83
2023/05/11 08:52:24;;;;;;;9.90;6.38;;;;;;;;;;5077376;28;20120;-83
2023/05/11 08:54:50;;;;;;;8.77;6.43;;;;;;;;;;5068817;28;20030;-80
2023/05/11 08:57:16;;;;;;;9.27;6.00;;;;;;;;;;5068502;28;20118;-81
2023/05/11 08:59:48;;;;;;;10.60;5.43;;;;;;;;;;5062155;28;20067;-80
2023/05/11 09:02:16;;;;;;;9.27;5.20;;;;;;;;;;5078163;28;20136;-82
2023/05/11 09:04:44;;;;;;;8.55;5.20;;;;;;;;;;5065145;28;20033;-80
2023/05/11 09:07:16;;;;;;;7.50;5.50;;;;;;;;;;5075535;28;20024;-79
2023/05/11 09:09:41;;;;;;;9.65;5.88;;;;;;;;;;5075442;28;20514;-82
2023/05/11 09:12:08;;;;;;;9.02;6.28;;;;;;;;;;5084697;28;20549;-82
2023/05/11 09:14:34;;;;;;;9.02;5.85;;;;;;;;;;5072476;28;20028;-84
2023/05/11 09:17:02;;;;;;;7.90;5.15;;;;;;;;;;5082908;28;20036;-82
2023/05/11 09:19:28;;;;;;;9.05;5.65;;;;;;;;;;5070224;28;20069;-84
2023/05/11 09:21:53;;;;;;;6.90;5.07;;;;;;;;;;5078626;28;20032;-86
2023/05/11 09:24:20;;;;;;;7.70;4.70;;;;;;;;;;5075538;28;20430;-81
2023/05/11 09:26:46;;;;;;;9.18;5.40;;;;;;;;;;5078638;28;20032;-85
2023/05/11 09:29:18;;;;;;;6.38;4.68;;;;;;;;;;5075955;28;20040;-85
2023/05/11 09:31:47;;;;;;;7.38;4.57;;;;;;;;;;5080267;28;20048;-85
2023/05/11 09:34:16;;;;;;;6.75;4.60;;;;;;;;;;5077473;28;20483;-83
2023/05/11 09:36:48;;;;;;;6.28;4.53;;;;;;;;;;5075552;28;20076;-84
2023/05/11 09:39:14;;;;;;;6.90;5.05;;;;;;;;;;5088937;28;20070;-81
2023/05/11 09:41:43;;;;;;;6.30;3.80;;;;;;;;;;5084297;28;20035;-82
2023/05/11 09:44:12;;;;;;;9.68;4.82;;;;;;;;;;5075046;28;20024;-87
2023/05/11 09:49:33;;;;;;;7.68;4.80;;;;;;;;;;5079550;28;20039;-86
2023/05/11 09:52:02;;;;;;;6.28;4.72;;;;;;;;;;5074212;28;20030;-86
2023/05/11 09:54:27;;;;;;;5.80;3.70;;;;;;;;;;5079481;28;20070;-82
2023/05/11 09:56:57;;;;;;;5.38;3.55;;;;;;;;;;5079801;28;20032;-83
2023/05/11 09:59:41;;;;;;;6.93;4.28;;;;;;;;;;5079564;28;20038;-86
2023/05/11 10:02:22;;;;;;;8.25;3.85;;;;;;;;;;5073888;28;20041;-83
2023/05/11 10:04:54;;;;;;;8.55;3.78;;;;;;;;;;5075659;28;20033;-79
2023/05/11 10:07:30;;;;;;;4.78;3.55;;;;;;;;;;5071213;28;20089;-82
2023/05/11 10:10:00;;;;;;;4.20;3.15;;;;;;;;;;5074384;28;20024;-85
2023/05/11 10:12:26;;;;;;;5.45;3.65;;;;;;;;;;5086838;28;20039;-84
2023/05/11 10:15:03;;;;;;;4.70;3.75;;;;;;;;;;5075136;28;20044;-82
2023/05/11 10:17:29;;;;;;;7.75;4.53;;;;;;;;;;5079242;28;20491;-82
2023/05/11 10:19:56;;;;;;;11.85;5.22;;;;;;;;;;5071001;28;20037;-82
2023/05/11 10:22:23;;;;;;;8.05;5.10;;;;;;;;;;5080794;28;20040;-82
2023/05/11 10:24:50;;;;;;;7.72;4.43;;;;;;;;;;5076174;28;20506;-83
2023/05/11 10:27:20;;;;;;;6.18;3.78;;;;;;;;;;5079502;28;20031;-81
2023/05/11 10:29:49;;;;;;;13.40;5.28;;;;;;;;;;5073237;28;20033;-80
2023/05/11 10:32:19;;;;;;;5.25;4.15;;;;;;;;;;5072859;28;20056;-83
2023/05/11 10:34:49;;;;;;;7.65;4.85;;;;;;;;;;5079189;28;20067;-83
2023/05/11 10:37:15;;;;;;;6.85;4.57;;;;;;;;;;5071574;28;20124;-82
2023/05/11 10:39:43;;;;;;;7.90;4.43;;;;;;;;;;5067469;28;20032;-82
2023/05/11 10:42:11;;;;;;;6.43;4.35;;;;;;;;;;5073035;28;20020;-83
2023/05/11 10:44:39;;;;;;;6.97;4.60;;;;;;;;;;5079851;28;20530;-83
2023/05/11 10:47:42;;;;;;;6.18;3.92;;;;;;;;;;5074377;28;20028;-83
2023/05/11 10:50:26;;;;;;;5.32;3.75;;;;;;;;;;5081274;28;20090;-84
2023/05/11 10:53:11;;;;;;;5.85;3.83;;;;;;;;;;5077986;28;20024;-82
2023/05/11 10:56:02;;;;;;;7.13;4.03;;;;;;;;;;5074252;28;20437;-82
2023/05/11 10:58:36;;;;;;;4.57;3.70;;;;;;;;;;5079618;28;20031;-84
2023/05/11 11:01:14;;;;;;;6.35;3.72;;;;;;;;;;5082481;28;20484;-82
2023/05/11 11:03:40;;;;;;;6.22;3.55;;;;;;;;;;5081266;28;20024;-80
2023/05/11 11:06:20;;;;;;;6.53;3.92;;;;;;;;;;5072114;28;20070;-82
2023/05/11 11:08:59;;;;;;;5.13;3.30;;;;;;;;;;5082531;28;20024;-83
2023/05/11 11:11:38;;;;;;;4.88;3.08;;;;;;;;;;5077183;28;20033;-83
2023/05/11 11:14:04;;;;;;;5.93;3.85;;;;;;;;;;5077951;28;20078;-81
2023/05/11 11:16:33;;;;;;;4.72;2.90;;;;;;;;;;5074609;28;20068;-79
2023/05/11 11:19:30;;;;;;;6.57;3.50;;;;;;;;;;5076771;28;20062;-83
2023/05/11 11:21:56;;;;;;;5.45;2.72;;;;;;;;;;5073806;28;20714;-80
2023/05/11 11:24:37;;;;;;;5.63;3.63;;;;;;;;;;5069226;28;20063;-80
2023/05/11 11:27:09;;;;;;;5.03;3.38;;;;;;;;;;5103159;28;20384;-81
2023/05/11 11:29:36;;;;;;;5.32;3.20;;;;;;;;;;5081504;28;20534;-82
2023/05/11 11:32:31;;;;;;;6.45;3.20;;;;;;;;;;5087250;28;20050;-81
2023/05/11 11:34:56;;;;;;;4.45;3.08;;;;;;;;;;5064863;28;20044;-80
2023/05/11 11:37:22;;;;;;;4.80;3.00;;;;;;;;;;5084268;28;20040;-81
2023/05/11 11:39:52;;;;;;;4.53;3.10;;;;;;;;;;5082300;28;20054;-82
2023/05/11 11:42:32;;;;;;;5.97;3.70;;;;;;;;;;5088816;28;20024;-80
2023/05/11 11:45:30;;;;;;;5.80;3.50;;;;;;;;;;5078000;28;20031;-80
2023/05/11 11:48:06;;;;;;;5.72;3.55;;;;;;;;;;5077802;28;20016;-81
2023/05/11 11:50:32;;;;;;;7.18;3.25;;;;;;;;;;5073781;28;20381;-81
2023/05/11 11:52:58;;;;;;;11.38;3.83;;;;;;;;;;5076118;28;20047;-80
2023/05/11 11:55:48;;;;;;;6.32;3.40;;;;;;;;;;5071663;28;20032;-80
2023/05/11 11:58:45;;;;;;;7.97;3.50;;;;;;;;;;5073314;28;20143;-81
2023/05/11 12:01:21;;;;;;;6.63;4.22;;;;;;;;;;5067909;28;20028;-80
2023/05/11 12:04:11;;;;;;;7.85;4.40;;;;;;;;;;5077013;28;20034;-84
2023/05/11 12:06:38;;;;;;;7.00;4.18;;;;;;;;;;5076497;28;20082;-80
2023/05/11 12:09:04;;;;;;;9.05;3.85;;;;;;;;;;5081523;28;20552;-82
2023/05/11 12:11:31;;;;;;;8.63;4.45;;;;;;;;;;5075087;28;20040;-82
2023/05/11 12:13:58;;;;;;;7.65;3.75;;;;;;;;;;5080381;28;20020;-82
2023/05/11 12:16:24;;;;;;;5.88;3.90;;;;;;;;;;5075163;28;20028;-83
2023/05/11 12:19:00;;;;;;;6.28;3.65;;;;;;;;;;5075458;28;20059;-80
2023/05/11 12:21:32;;;;;;;10.73;5.18;;;;;;;;;;5078674;28;20020;-82
2023/05/11 12:24:02;;;;;;;7.07;4.32;;;;;;;;;;5077693;28;20451;-85
2023/05/11 12:26:28;;;;;;;;;;;;;;;;;;5084947;28;20384;-82
2023/05/11 12:29:13;;;;;;;8.18;4.43;;;;;;;;;;5082235;28;19912;-88
2023/05/11 12:31:44;;;;;;;8.88;4.13;;;;;;;;;;5082419;28;20024;-84
2023/05/11 12:34:17;;;;;;;7.32;4.47;;;;;;;;;;5080185;28;20099;-84
2023/05/11 12:36:47;;;;;;;5.57;3.88;;;;;;;;;;5079647;28;20036;-83
2023/05/11 12:39:22;;;;;;;7.07;4.32;;;;;;;;;;5082288;28;20407;-83
2023/05/11 12:41:49;;;;;;;5.00;3.65;;;;;;;;;;5087040;28;20085;-83
2023/05/11 12:44:16;;;;;;;5.63;4.22;;;;;;;;;;5077858;28;20055;-83
2023/05/11 12:46:42;;;;;;;5.00;3.97;;;;;;;;;;5077674;28;20020;-83
2023/05/11 12:49:09;;;;;;;5.35;4.05;;;;;;;;;;5075086;28;20032;-82
2023/05/11 12:51:43;;;;;;;6.95;4.53;;;;;;;;;;5080171;28;20115;-83
2023/05/11 12:54:08;;;;;;;5.80;4.13;;;;;;;;;;5086932;28;20024;-86
2023/05/11 12:56:45;;;;;;;8.27;4.25;;;;;;;;;;5089020;28;20024;-85
2023/05/11 12:59:36;;;;;;;7.82;4.97;;;;;;;;;;5073313;28;20029;-82
2023/05/11 13:02:10;;;;;;;6.45;4.00;;;;;;;;;;5074110;28;20403;-82
2023/05/11 13:04:37;;;;;;;7.80;4.82;;;;;;;;;;5077203;28;20101;-83
2023/05/11 13:07:05;;;;;;;5.43;3.58;;;;;;;;;;5076399;28;20054;-84
2023/05/11 13:09:31;;;;;;;5.40;4.00;;;;;;;;;;5081633;28;20027;-83
2023/05/11 13:12:16;;;;;;;6.97;4.03;;;;;;;;;;5080902;28;20021;-83
2023/05/11 13:15:11;;;;;;;6.03;4.30;;;;;;;;;;5076006;28;20567;-82
2023/05/11 13:17:39;;;;;;;8.35;4.32;;;;;;;;;;5068454;28;20537;-86
2023/05/11 13:20:22;;;;;;;8.18;4.80;;;;;;;;;;5077103;28;20028;-82
2023/05/11 13:22:49;;;;;;;6.68;3.88;;;;;;;;;;5079053;28;20488;-82
2023/05/11 13:25:17;;;;;;;5.88;3.97;;;;;;;;;;5077263;28;20056;-85
2023/05/11 13:27:43;;;;;;;6.75;3.72;;;;;;;;;;5075398;28;20040;-84
2023/05/11 13:30:09;;;;;;;7.07;4.05;;;;;;;;;;5083201;28;20020;-83
2023/05/11 13:32:35;;;;;;;6.13;3.85;;;;;;;;;;5081226;28;20107;-83
2023/05/11 13:35:05;;;;;;;6.20;3.78;;;;;;;;;;5084914;28;20491;-83
2023/05/11 13:37:31;;;;;;;5.57;4.15;;;;;;;;;;5080470;28;20392;-83
2023/05/11 13:39:56;;;;;;;5.50;4.22;;;;;;;;;;5071992;28;20040;-83
2023/05/11 13:42:22;;;;;;;5.88;3.97;;;;;;;;;;5076919;28;20082;-84
2023/05/11 13:44:48;;;;;;;8.13;4.05;;;;;;;;;;5081732;28;20032;-84
2023/05/11 13:47:13;;;;;;;5.07;3.83;;;;;;;;;;5076219;28;20033;-85
2023/05/11 13:49:38;;;;;;;5.60;3.90;;;;;;;;;;5079399;28;20024;-84
2023/05/11 13:52:04;;;;;;;6.32;4.38;;;;;;;;;;5070219;28;20410;-85
2023/05/11 13:54:30;;;;;;;4.63;3.28;;;;;;;;;;5072901;28;20093;-84
2023/05/11 13:56:56;;;;;;;5.32;3.50;;;;;;;;;;5079336;28;20488;-85
2023/05/11 13:59:22;;;;;;;5.55;3.67;;;;;;;;;;5086271;28;20039;-84
2023/05/11 14:01:47;;;;;;;5.43;3.85;;;;;;;;;;5083748;28;20036;-87
2023/05/11 14:04:13;;;;;;;5.80;3.33;;;;;;;;;;5078503;28;20035;-84
2023/05/11 14:06:39;;;;;;;4.80;2.95;;;;;;;;;;5081056;28;20113;-89
2023/05/11 14:09:04;;;;;;;3.78;2.92;;;;;;;;;;5083611;28;20020;-85
2023/05/11 14:11:30;;;;;;;7.22;3.58;;;;;;;;;;5076185;28;20043;-83
2023/05/11 14:13:55;;;;;;;4.93;2.97;;;;;;;;;;5111327;27;20476;-85
2023/05/11 14:16:21;;;;;;;6.40;3.67;;;;;;;;;;5081614;28;20102;-86
2023/05/11 14:18:47;;;;;;;5.95;3.55;;;;;;;;;;5080404;28;20357;-80
2023/05/11 14:21:12;;;;;;;5.13;3.17;;;;;;;;;;5080889;28;20032;-81
2023/05/11 14:23:38;;;;;;;5.18;2.83;;;;;;;;;;5082126;28;20505;-82
2023/05/11 14:26:03;;;;;;;5.35;2.75;;;;;;;;;;5082325;28;20025;-85
2023/05/11 14:28:30;;;;;;;3.45;3.03;;;;;;;;;;5077226;28;20031;-86
2023/05/11 14:30:56;;;;;;;5.43;3.45;;;;;;;;;;5080112;28;20097;-83
2023/05/11 14:33:23;;;;;;;4.88;2.80;;;;;;;;;;5079482;28;20024;-84
2023/05/11 14:35:48;;;;;;;4.40;2.88;;;;;;;;;;5084605;28;20115;-85
2023/05/11 14:38:14;;;;;;;4.18;3.10;;;;;;;;;;5075627;28;20068;-84
2023/05/11 14:40:40;;;;;;;5.03;3.03;;;;;;;;;;5079220;28;20024;-86
2023/05/11 14:43:06;;;;;;;8.27;2.85;;;;;;;;;;5083738;28;20024;-83
2023/05/11 14:45:32;;;;;;;5.80;3.15;;;;;;;;;;5081106;28;20024;-83
2023/05/11 14:47:57;;;;;;;4.78;2.95;;;;;;;;;;5074544;28;20036;-83
2023/05/11 14:50:22;;;;;;;4.07;2.85;;;;;;;;;;5077898;28;20035;-82
2023/05/11 14:52:48;;;;;;;5.82;3.53;;;;;;;;;;5088066;28;20034;-81
2023/05/11 14:55:14;;;;;;;5.30;3.28;;;;;;;;;;5084430;28;20160;-82
2023/05/11 14:57:39;;;;;;;6.15;2.78;;;;;;;;;;5086584;28;20076;-84
2023/05/11 15:00:05;;;;;;;5.20;3.33;;;;;;;;;;5073104;28;20384;-81
2023/05/11 15:02:30;;;;;;;5.75;2.97;;;;;;;;;;5074265;28;20020;-84